Time;durP1;ratioP1;P1;durP2;ratioP2;P2;SDS_P1;SDS_P2;PMS_P1;PMS_P2;Temp;Humidity;BMP_temperature;BMP_pressure;BME280_temperature;BME280_humidity;BME280_pressure;Samples;Min_cycle;Max_cycle;Signal;HPM_P1;HPM_P2
2022/05/09 00:02:15;;;;;;;31.23;9.88;;;3.10;99.90;;;;;;5014148;28;20053;-78
2022/05/09 00:04:40;;;;;;;27.02;8.77;;;3.10;99.90;;;;;;5014394;28;20052;-78
2022/05/09 00:07:07;;;;;;;32.85;9.70;;;3.00;99.90;;;;;;5015651;28;20509;-78
2022/05/09 00:09:33;;;;;;;26.95;9.40;;;2.90;99.90;;;;;;5014510;28;20388;-78
2022/05/09 00:11:59;;;;;;;27.77;8.65;;;2.70;99.90;;;;;;5015620;28;20042;-78
2022/05/09 00:14:26;;;;;;;20.80;8.73;;;2.60;99.90;;;;;;5015573;28;20054;-78
2022/05/09 00:16:52;;;;;;;32.53;10.63;;;2.60;99.90;;;;;;5015212;28;20382;-79
2022/05/09 00:19:20;;;;;;;28.95;10.43;;;2.60;99.90;;;;;;5030403;28;20046;-78
2022/05/09 00:21:47;;;;;;;33.88;10.43;;;2.60;99.90;;;;;;5013875;28;20053;-78
2022/05/09 00:24:14;;;;;;;34.90;10.23;;;2.50;99.90;;;;;;5030352;28;20100;-78
2022/05/09 00:26:41;;;;;;;35.95;8.98;;;2.50;99.90;;;;;;5015274;28;20054;-78
2022/05/09 00:29:09;;;;;;;34.95;11.95;;;2.90;99.90;;;;;;5014942;28;20037;-78
2022/05/09 00:31:35;;;;;;;40.50;11.25;;;2.60;99.90;;;;;;5015281;28;20564;-78
2022/05/09 00:34:01;;;;;;;37.00;11.95;;;2.60;99.90;;;;;;5015092;28;20168;-78
2022/05/09 00:36:27;;;;;;;41.95;11.93;;;2.70;99.90;;;;;;5013513;28;20125;-78
2022/05/09 00:38:53;;;;;;;46.65;13.27;;;2.60;99.90;;;;;;5015240;28;20046;-78
2022/05/09 00:41:37;;;;;;;40.03;13.40;;;2.60;99.90;;;;;;5014497;28;20085;-78
2022/05/09 00:44:09;;;;;;;42.10;12.65;;;2.60;99.90;;;;;;5013406;28;20042;-78
2022/05/09 00:46:41;;;;;;;45.83;12.57;;;2.60;99.90;;;;;;5014436;28;20368;-78
2022/05/09 00:49:12;;;;;;;48.45;15.15;;;2.50;99.90;;;;;;5014470;28;20075;-78
2022/05/09 00:51:38;;;;;;;43.95;12.68;;;2.50;99.90;;;;;;5029247;28;20062;-78
2022/05/09 00:54:05;;;;;;;35.05;12.23;;;2.40;99.90;;;;;;5014435;28;20420;-78
2022/05/09 00:56:42;;;;;;;40.50;13.05;;;2.40;99.90;;;;;;5013103;28;20052;-78
2022/05/09 00:59:09;;;;;;;;;;;2.40;99.90;;;;;;5015275;28;20045;-78
2022/05/09 01:01:36;;;;;;;41.42;14.02;;;2.30;99.90;;;;;;5013118;28;19921;-78
2022/05/09 01:04:19;;;;;;;35.78;12.20;;;2.30;99.90;;;;;;5013072;28;20070;-78
2022/05/09 01:06:45;;;;;;;52.35;16.48;;;2.40;99.90;;;;;;5014594;28;20073;-78
2022/05/09 01:09:11;;;;;;;39.83;13.85;;;2.60;99.90;;;;;;5014217;28;20092;-78
2022/05/09 01:11:40;;;;;;;46.55;15.23;;;2.60;99.90;;;;;;5029505;28;20096;-78
2022/05/09 01:14:19;;;;;;;48.95;15.93;;;2.70;99.90;;;;;;5014185;28;20490;-78
2022/05/09 01:16:46;;;;;;;56.47;14.90;;;2.70;99.90;;;;;;5029340;28;20057;-78
2022/05/09 01:19:34;;;;;;;40.00;12.95;;;2.70;99.90;;;;;;5014309;28;20054;-78
2022/05/09 01:22:02;;;;;;;42.35;14.35;;;2.60;99.90;;;;;;5029507;28;20058;-78
2022/05/09 01:24:29;;;;;;;53.30;14.85;;;2.70;99.90;;;;;;5029566;28;20057;-78
2022/05/09 01:26:55;;;;;;;43.55;15.75;;;2.80;99.90;;;;;;5014218;28;20125;-78
2022/05/09 01:29:24;;;;;;;53.65;16.08;;;2.80;99.90;;;;;;5029119;28;20046;-78
2022/05/09 01:31:52;;;;;;;47.35;13.80;;;2.80;99.90;;;;;;5028985;28;20478;-78
2022/05/09 01:34:18;;;;;;;48.03;12.32;;;3.30;99.90;;;;;;5014169;28;20132;-78
2022/05/09 01:36:50;;;;;;;43.25;15.57;;;2.80;99.90;;;;;;5029426;28;20065;-78
2022/05/09 01:39:17;;;;;;;48.03;14.93;;;2.70;99.90;;;;;;5029273;28;20057;-78
2022/05/09 01:41:45;;;;;;;54.83;15.55;;;2.70;99.90;;;;;;5029020;28;20091;-78
2022/05/09 01:44:12;;;;;;;57.63;17.23;;;2.70;99.90;;;;;;5014046;28;20430;-78
2022/05/09 01:49:29;;;;;;;53.60;16.38;;;2.80;99.90;;;;;;5028828;28;20395;-77
2022/05/09 01:49:29;;;;;;;52.17;15.90;;;3.00;99.90;;;;;;5013720;28;20060;-79
2022/05/09 01:51:56;;;;;;;57.70;15.82;;;3.20;99.90;;;;;;5013945;28;20068;-79
2022/05/09 01:54:21;;;;;;;36.33;13.35;;;2.70;99.90;;;;;;5013571;28;20045;-79
2022/05/09 01:56:47;;;;;;;41.60;13.32;;;2.60;99.90;;;;;;5013491;28;20050;-79
2022/05/09 01:59:13;;;;;;;39.65;13.45;;;2.60;99.90;;;;;;5058279;23;20185;-80
2022/05/09 02:01:43;;;;;;;58.45;16.38;;;2.50;99.90;;;;;;5000634;28;20050;-80
2022/05/09 02:04:11;;;;;;;55.13;15.48;;;2.60;99.90;;;;;;5012552;28;20060;-80
2022/05/09 02:06:37;;;;;;;53.00;15.73;;;2.60;99.90;;;;;;5004834;28;20466;-82
2022/05/09 02:09:02;;;;;;;57.63;17.17;;;2.60;99.90;;;;;;4997569;28;20450;-82
2022/05/09 02:11:29;;;;;;;56.72;18.13;;;2.70;99.90;;;;;;4997081;28;20049;-82
2022/05/09 02:13:54;;;;;;;66.80;19.00;;;2.90;99.90;;;;;;4997085;28;20046;-82
2022/05/09 02:16:20;;;;;;;46.35;15.43;;;3.10;99.90;;;;;;4994932;28;20449;-82
2022/05/09 02:18:45;;;;;;;54.63;18.02;;;3.20;99.90;;;;;;4997174;28;20406;-80
2022/05/09 02:21:11;;;;;;;64.53;19.15;;;3.10;99.90;;;;;;4996289;28;20042;-82
2022/05/09 02:23:36;;;;;;;69.57;17.73;;;3.00;99.90;;;;;;4996870;28;20053;-82
2022/05/09 02:26:02;;;;;;;57.17;15.75;;;2.90;99.90;;;;;;4996471;28;20069;-82
2022/05/09 02:28:28;;;;;;;66.38;16.85;;;2.70;99.90;;;;;;4996649;28;20049;-82
2022/05/09 02:30:54;;;;;;;56.83;16.95;;;2.60;99.90;;;;;;4996518;28;20056;-82
2022/05/09 02:33:20;;;;;;;47.22;15.65;;;2.60;99.90;;;;;;5000096;28;20516;-82
2022/05/09 02:35:46;;;;;;;46.05;16.08;;;2.50;99.90;;;;;;5016242;28;20038;-82
2022/05/09 02:38:11;;;;;;;52.60;16.88;;;2.50;99.90;;;;;;5016141;28;20513;-82
2022/05/09 02:40:37;;;;;;;47.50;16.00;;;2.50;99.90;;;;;;5016146;28;20113;-82
2022/05/09 02:43:04;;;;;;;55.65;16.83;;;2.40;99.90;;;;;;5016010;28;20089;-82
2022/05/09 02:45:30;;;;;;;55.25;16.95;;;2.40;99.90;;;;;;5015517;28;20081;-79
2022/05/09 02:47:56;;;;;;;62.25;17.52;;;2.30;99.90;;;;;;5016137;28;20038;-82
2022/05/09 02:50:24;;;;;;;44.67;15.35;;;2.30;99.90;;;;;;5015817;28;20049;-82
2022/05/09 02:52:51;;;;;;;39.50;15.23;;;2.20;99.90;;;;;;5016024;28;20038;-82
2022/05/09 02:55:18;;;;;;;36.67;13.43;;;2.20;99.90;;;;;;5015745;28;20053;-82
2022/05/09 02:57:44;;;;;;;43.13;15.13;;;2.10;99.90;;;;;;5015932;28;20081;-81
2022/05/09 03:00:15;;;;;;;55.55;16.35;;;2.10;99.90;;;;;;5028717;28;20532;-81
2022/05/09 03:02:41;;;;;;;49.75;16.10;;;2.20;99.90;;;;;;5035754;28;20080;-81
2022/05/09 03:05:07;;;;;;;44.83;15.05;;;2.10;99.90;;;;;;5035392;28;20054;-81
2022/05/09 03:07:33;;;;;;;52.13;17.25;;;2.20;99.90;;;;;;5035524;28;20048;-81
2022/05/09 03:09:59;;;;;;;64.50;18.95;;;2.10;99.90;;;;;;5027378;28;20402;-81
2022/05/09 03:12:25;;;;;;;46.15;16.13;;;2.00;99.90;;;;;;5015863;28;20050;-81
2022/05/09 03:14:51;;;;;;;46.90;15.15;;;2.00;99.90;;;;;;5015535;28;20038;-81
2022/05/09 03:17:16;;;;;;;39.42;14.50;;;1.90;99.90;;;;;;5014372;28;20144;-81
2022/05/09 03:19:43;;;;;;;48.67;16.48;;;1.90;99.90;;;;;;5015678;28;20493;-82
2022/05/09 03:22:08;;;;;;;39.08;15.15;;;1.80;99.90;;;;;;5015382;28;20049;-82
2022/05/09 03:24:35;;;;;;;43.08;14.05;;;1.80;99.90;;;;;;5015394;28;20478;-81
2022/05/09 03:27:03;;;;;;;42.95;16.70;;;1.70;99.90;;;;;;5015409;28;20057;-82
2022/05/09 03:29:30;;;;;;;32.60;15.25;;;1.60;99.90;;;;;;5015219;28;20129;-81
2022/05/09 03:31:56;;;;;;;44.45;15.32;;;1.60;99.90;;;;;;4997961;28;20433;-81
2022/05/09 03:34:22;;;;;;;40.55;15.25;;;1.60;99.90;;;;;;5015394;28;20049;-80
2022/05/09 03:36:48;;;;;;;43.80;16.10;;;1.70;99.90;;;;;;5015386;28;20042;-82
2022/05/09 03:39:14;;;;;;;49.08;15.88;;;1.90;99.90;;;;;;5015199;28;20049;-81
2022/05/09 03:41:39;;;;;;;49.00;16.67;;;1.90;99.90;;;;;;5015065;28;20410;-81
2022/05/09 03:44:06;;;;;;;51.58;17.27;;;1.90;99.90;;;;;;5014922;28;20520;-81
2022/05/09 03:46:32;;;;;;;55.70;18.45;;;1.90;99.90;;;;;;5015014;28;20053;-81
2022/05/09 03:49:01;;;;;;;59.55;18.15;;;2.00;99.90;;;;;;5014857;28;20461;-81
2022/05/09 03:51:26;;;;;;;57.80;19.30;;;2.10;99.90;;;;;;5015164;28;20038;-81
2022/05/09 03:53:52;;;;;;;62.90;21.25;;;2.40;99.90;;;;;;5015010;28;20140;-81
2022/05/09 03:56:17;;;;;;;54.47;17.60;;;2.40;99.90;;;;;;5014657;28;20501;-81
2022/05/09 03:58:43;;;;;;;60.70;19.02;;;2.40;99.90;;;;;;5014705;28;20053;-81
2022/05/09 04:01:11;;;;;;;52.65;20.17;;;2.30;99.90;;;;;;5014649;28;20409;-81
2022/05/09 04:03:37;;;;;;;82.75;23.23;;;2.30;99.90;;;;;;5014675;28;20165;-82
2022/05/09 04:06:03;;;;;;;103.38;25.45;;;2.30;99.90;;;;;;5014508;28;20509;-82
2022/05/09 04:08:29;;;;;;;61.40;21.45;;;2.50;99.90;;;;;;5014513;28;20042;-82
2022/05/09 04:10:55;;;;;;;55.97;19.65;;;2.50;99.90;;;;;;5014677;28;20038;-81
2022/05/09 04:13:21;;;;;;;58.63;20.33;;;2.60;99.90;;;;;;5014625;28;20038;-81
2022/05/09 04:18:40;;;;;;;57.83;19.58;;;2.50;99.90;;;;;;5014395;28;20046;-82
2022/05/09 04:21:07;;;;;;;66.57;19.30;;;2.70;99.90;;;;;;5014162;28;20410;-81
2022/05/09 04:23:33;;;;;;;71.85;20.30;;;2.80;99.90;;;;;;5014136;28;20042;-82
2022/05/09 04:25:59;;;;;;;65.25;20.55;;;2.90;99.90;;;;;;5014135;28;20046;-81
2022/05/09 04:28:25;;;;;;;65.32;21.30;;;2.90;99.90;;;;;;5013792;28;20072;-81
2022/05/09 04:30:51;;;;;;;79.57;22.13;;;3.10;99.90;;;;;;5012971;28;20042;-82
2022/05/09 04:33:17;;;;;;;71.50;22.55;;;3.20;99.90;;;;;;5013960;28;20129;-81
2022/05/09 04:35:44;;;;;;;72.03;23.35;;;3.30;99.90;;;;;;5013661;28;20125;-81
2022/05/09 04:38:22;;;;;;;69.25;23.27;;;3.50;99.90;;;;;;5013591;28;20060;-81
2022/05/09 04:40:51;;;;;;;76.45;21.75;;;3.70;99.90;;;;;;5013629;28;20045;-81
2022/05/09 04:43:19;;;;;;;63.45;21.63;;;3.90;99.90;;;;;;5013871;28;20049;-81
2022/05/09 04:45:45;;;;;;;80.93;23.27;;;4.10;99.90;;;;;;5013774;28;20046;-81
2022/05/09 04:48:10;;;;;;;74.22;22.92;;;4.20;99.90;;;;;;5013968;28;20406;-81
2022/05/09 04:50:36;;;;;;;62.85;21.83;;;4.40;99.90;;;;;;5014007;28;20449;-81
2022/05/09 04:53:02;;;;;;;66.55;20.77;;;4.40;99.90;;;;;;5014023;28;20050;-81
2022/05/09 04:55:28;;;;;;;59.53;20.15;;;4.50;99.90;;;;;;4996092;28;20125;-81
2022/05/09 04:57:53;;;;;;;64.80;20.55;;;4.50;99.90;;;;;;4995818;28;20088;-81
2022/05/09 05:00:24;;;;;;;69.22;21.10;;;4.60;99.90;;;;;;5013030;28;20438;-81
2022/05/09 05:02:50;;;;;;;70.03;22.45;;;4.70;99.90;;;;;;5013479;28;20046;-81
2022/05/09 05:05:15;;;;;;;64.03;20.42;;;4.70;99.90;;;;;;5013446;28;20041;-81
2022/05/09 05:07:41;;;;;;;52.03;20.48;;;4.80;99.90;;;;;;4996019;28;20132;-81
2022/05/09 05:10:07;;;;;;;58.50;22.15;;;4.80;99.90;;;;;;5013642;28;20038;-81
2022/05/09 05:12:33;;;;;;;59.00;21.35;;;4.90;99.90;;;;;;5013296;28;20034;-81
2022/05/09 05:15:00;;;;;;;63.38;21.77;;;5.00;99.90;;;;;;5013104;28;20034;-81
2022/05/09 05:17:25;;;;;;;62.70;21.08;;;5.10;99.90;;;;;;5013059;28;20127;-82
2022/05/09 05:19:51;;;;;;;76.47;20.52;;;5.20;99.90;;;;;;5013287;28;20069;-81
2022/05/09 05:22:17;;;;;;;56.15;19.58;;;5.30;99.90;;;;;;5013306;28;20046;-82
2022/05/09 05:24:44;;;;;;;54.25;19.80;;;5.40;99.90;;;;;;5013035;28;20054;-83
2022/05/09 05:27:11;;;;;;;56.75;20.45;;;5.50;99.90;;;;;;5012851;28;20034;-82
2022/05/09 05:29:38;;;;;;;46.60;19.60;;;5.60;99.90;;;;;;5012843;28;20052;-82
2022/05/09 05:32:36;;;;;;;54.42;19.70;;;5.70;99.90;;;;;;5012695;28;20038;-81
2022/05/09 05:35:03;;;;;;;46.90;18.35;;;5.80;99.90;;;;;;5004703;28;20053;-82
2022/05/09 05:37:28;;;;;;;50.58;18.42;;;6.00;99.90;;;;;;4995955;28;20076;-82
2022/05/09 05:39:54;;;;;;;48.03;18.50;;;6.40;99.90;;;;;;5011090;28;20551;-80
2022/05/09 05:42:20;;;;;;;50.30;20.02;;;6.90;99.90;;;;;;5012288;28;20552;-80
2022/05/09 05:44:47;;;;;;;60.17;20.90;;;7.10;99.90;;;;;;4995086;28;20077;-80
2022/05/09 05:47:16;;;;;;;43.63;15.70;;;7.60;99.90;;;;;;5012785;28;20058;-80
2022/05/09 05:49:42;;;;;;;23.38;13.07;;;7.90;99.90;;;;;;5012685;28;20108;-81
2022/05/09 05:52:08;;;;;;;29.40;11.48;;;8.30;99.90;;;;;;4994885;28;20102;-81
2022/05/09 05:54:39;;;;;;;24.83;11.13;;;8.60;99.90;;;;;;5012880;28;20038;-81
2022/05/09 05:57:06;;;;;;;24.20;10.35;;;9.00;99.90;;;;;;5012479;28;20490;-81
2022/05/09 05:59:31;;;;;;;22.00;8.25;;;9.30;99.90;;;;;;5012441;28;20078;-81
2022/05/09 06:01:57;;;;;;;21.85;8.52;;;9.00;99.90;;;;;;5012720;28;20041;-82
2022/05/09 06:04:23;;;;;;;24.40;7.55;;;9.50;99.90;;;;;;5012636;28;20049;-82
2022/05/09 06:06:49;;;;;;;14.95;6.72;;;9.90;99.90;;;;;;5012600;28;20042;-83
2022/05/09 06:09:15;;;;;;;17.08;5.88;;;10.80;99.90;;;;;;4994884;28;20125;-83
2022/05/09 06:11:41;;;;;;;15.30;5.60;;;11.00;99.90;;;;;;5012446;28;20410;-82
2022/05/09 06:14:08;;;;;;;13.75;5.85;;;11.30;99.90;;;;;;5012594;28;20038;-83
2022/05/09 06:16:34;;;;;;;17.60;5.47;;;11.90;99.90;;;;;;5012622;28;20042;-82
2022/05/09 06:19:00;;;;;;;12.88;5.38;;;12.20;99.90;;;;;;5012545;28;20383;-81
2022/05/09 06:21:27;;;;;;;15.77;5.75;;;12.20;99.90;;;;;;5012469;28;20044;-83
2022/05/09 06:23:53;;;;;;;17.58;6.38;;;12.10;99.90;;;;;;5012273;28;20552;-83
2022/05/09 06:26:20;;;;;;;19.35;5.55;;;12.80;99.90;;;;;;5012470;28;20049;-82
2022/05/09 06:28:46;;;;;;;16.58;5.68;;;13.70;99.90;;;;;;5012554;28;20108;-82
2022/05/09 06:31:11;;;;;;;21.23;6.50;;;14.60;99.90;;;;;;5012305;28;20398;-82
2022/05/09 06:33:37;;;;;;;21.00;6.05;;;14.70;99.90;;;;;;5012431;28;20045;-82
2022/05/09 06:36:03;;;;;;;25.40;4.70;;;14.20;99.90;;;;;;5012158;28;20401;-82
2022/05/09 06:38:29;;;;;;;16.05;4.93;;;13.90;99.90;;;;;;5012252;28;20088;-82
2022/05/09 06:40:55;;;;;;;17.55;5.45;;;14.20;99.90;;;;;;5011903;28;20057;-82
2022/05/09 06:43:23;;;;;;;19.73;5.72;;;14.20;99.90;;;;;;5012176;28;20049;-82
2022/05/09 06:45:50;;;;;;;19.88;6.03;;;14.10;99.90;;;;;;5012182;28;20076;-82
2022/05/09 06:48:16;;;;;;;15.27;5.10;;;14.80;99.90;;;;;;5012340;28;20049;-82
2022/05/09 06:50:42;;;;;;;15.70;4.97;;;16.00;99.90;;;;;;5012199;28;20157;-82
2022/05/09 06:53:09;;;;;;;15.38;5.55;;;16.20;94.40;;;;;;5014875;28;20051;-82
2022/05/09 06:55:35;;;;;;;15.45;4.82;;;16.60;98.30;;;;;;5015964;28;20046;-81
2022/05/09 06:58:09;;;;;;;16.05;4.85;;;17.80;92.80;;;;;;5015919;28;20462;-82
2022/05/09 07:00:35;;;;;;;12.98;3.85;;;17.80;67.70;;;;;;5015382;28;20065;-81
2022/05/09 07:03:01;;;;;;;15.85;4.85;;;17.80;61.60;;;;;;5015656;28;20042;-82
2022/05/09 07:05:27;;;;;;;15.63;4.35;;;17.30;72.40;;;;;;5015596;28;20045;-82
2022/05/09 07:07:53;;;;;;;14.65;4.00;;;17.10;68.20;;;;;;5015450;28;20078;-82
2022/05/09 07:10:19;;;;;;;15.25;4.32;;;16.40;73.50;;;;;;5012646;28;20529;-82
2022/05/09 07:12:56;;;;;;;14.75;4.93;;;16.80;59.60;;;;;;5013437;28;20068;-83
2022/05/09 07:15:24;;;;;;;14.55;4.80;;;18.00;56.90;;;;;;5014720;28;20120;-82
2022/05/09 07:17:51;;;;;;;14.00;4.32;;;19.10;44.40;;;;;;5014225;28;20510;-83
2022/05/09 07:20:19;;;;;;;20.08;5.50;;;17.90;40.00;;;;;;5013091;28;20129;-82
2022/05/09 07:22:44;;;;;;;14.80;4.45;;;18.20;44.00;;;;;;5013159;28;20085;-83
2022/05/09 07:25:13;;;;;;;14.60;4.18;;;18.10;46.50;;;;;;5013045;28;20077;-82
2022/05/09 07:27:42;;;;;;;13.63;4.25;;;18.90;31.40;;;;;;5012990;28;20474;-82
2022/05/09 07:30:12;;;;;;;16.20;4.47;;;18.50;36.30;;;;;;5012536;28;20057;-82
2022/05/09 07:32:38;;;;;;;12.50;4.40;;;19.00;26.00;;;;;;5012643;28;20056;-82
2022/05/09 07:35:06;;;;;;;17.15;4.70;;;20.50;30.00;;;;;;5012607;28;20077;-83
2022/05/09 07:37:32;;;;;;;12.68;4.05;;;21.70;22.00;;;;;;5013136;28;20449;-83
2022/05/09 07:39:57;;;;;;;14.15;4.32;;;22.50;16.90;;;;;;5012440;28;20041;-82
2022/05/09 07:42:23;;;;;;;11.65;4.22;;;22.30;8.80;;;;;;5012658;28;20070;-82
2022/05/09 07:44:52;;;;;;;38.67;7.07;;;22.20;9.60;;;;;;5012463;28;20449;-81
2022/05/09 07:47:18;;;;;;;16.67;4.75;;;22.50;6.30;;;;;;5012676;28;20413;-82
2022/05/09 07:49:43;;;;;;;16.25;4.28;;;22.60;5.60;;;;;;5012382;28;20042;-82
2022/05/09 07:52:09;;;;;;;14.93;4.85;;;22.20;3.60;;;;;;5012101;28;20054;-81
2022/05/09 07:54:35;;;;;;;13.45;4.30;;;22.00;5.50;;;;;;5011995;28;20532;-81
2022/05/09 07:57:01;;;;;;;12.63;5.43;;;22.90;4.70;;;;;;5012071;28;20053;-81
2022/05/09 07:59:26;;;;;;;12.70;4.65;;;23.30;1.00;;;;;;5011627;28;20509;-81
2022/05/09 08:01:52;;;;;;;13.02;3.65;;;22.60;1.00;;;;;;5011607;28;20053;-82
2022/05/09 08:04:18;;;;;;;13.63;4.22;;;23.10;1.00;;;;;;5011392;28;20053;-81
2022/05/09 08:06:45;;;;;;;11.98;3.60;;;23.30;1.00;;;;;;5012436;28;20506;-82
2022/05/09 08:09:11;;;;;;;9.10;3.35;;;23.50;1.00;;;;;;5011939;28;20116;-81
2022/05/09 08:11:36;;;;;;;11.07;4.10;;;24.00;1.00;;;;;;5011653;28;20137;-81
2022/05/09 08:14:02;;;;;;;12.10;4.32;;;23.40;1.00;;;;;;5011749;28;20497;-81
2022/05/09 08:16:30;;;;;;;15.43;4.53;;;22.50;1.00;;;;;;5011216;28;20394;-81
2022/05/09 08:18:56;;;;;;;11.05;3.88;;;22.60;1.00;;;;;;5012125;28;20121;-81
2022/05/09 08:21:22;;;;;;;11.70;3.90;;;23.10;1.00;;;;;;5011485;28;20510;-81
2022/05/09 08:23:49;;;;;;;14.27;4.20;;;22.90;1.00;;;;;;5011865;28;20135;-81
2022/05/09 08:26:16;;;;;;;9.93;3.90;;;22.80;1.00;;;;;;5011405;28;20192;-80
2022/05/09 08:28:42;;;;;;;17.27;4.10;;;23.30;1.00;;;;;;5011441;28;20568;-81
2022/05/09 08:31:07;;;;;;;14.73;4.55;;;22.50;1.00;;;;;;5011412;28;20034;-81
2022/05/09 08:33:33;;;;;;;13.15;3.30;;;23.40;1.00;;;;;;5011780;28;20073;-81
2022/05/09 08:36:00;;;;;;;9.63;3.60;;;23.50;1.00;;;;;;5011782;28;20156;-80
2022/05/09 08:38:26;;;;;;;12.20;4.30;;;23.30;1.00;;;;;;5013851;28;20057;-81
2022/05/09 08:41:05;;;;;;;14.43;3.50;;;23.30;1.00;;;;;;5011005;28;20111;-81
2022/05/09 08:43:59;;;;;;;13.48;4.57;;;23.70;1.00;;;;;;5011366;28;20046;-81
2022/05/09 08:46:42;;;;;;;14.88;4.60;;;24.30;1.00;;;;;;5011613;28;20081;-81
2022/05/09 08:49:30;;;;;;;10.15;3.58;;;23.60;1.00;;;;;;5011500;28;20703;-80
2022/05/09 08:52:14;;;;;;;15.88;4.28;;;22.50;1.00;;;;;;5011826;28;20077;-79
2022/05/09 08:54:41;;;;;;;10.98;3.65;;;23.30;1.00;;;;;;5020022;28;20074;-79
2022/05/09 08:57:15;;;;;;;9.40;3.63;;;23.10;1.00;;;;;;5014610;28;20077;-79
2022/05/09 08:59:48;;;;;;;18.33;4.60;;;23.90;1.00;;;;;;5013388;28;20156;-80
2022/05/09 09:02:20;;;;;;;12.93;3.60;;;24.90;1.00;;;;;;5014867;28;20077;-79
2022/05/09 09:04:54;;;;;;;15.43;4.07;;;23.80;1.00;;;;;;5014674;28;20064;-78
2022/05/09 09:07:41;;;;;;;12.38;3.33;;;24.70;1.00;;;;;;5014177;28;20077;-78
2022/05/09 09:10:12;;;;;;;14.05;3.28;;;25.30;1.00;;;;;;5014073;28;20069;-79
2022/05/09 09:13:02;;;;;;;17.35;4.25;;;25.30;1.00;;;;;;5013735;28;20566;-80
2022/05/09 09:15:45;;;;;;;15.82;3.67;;;26.20;1.00;;;;;;5012853;28;20038;-79
2022/05/09 09:18:47;;;;;;;11.32;3.38;;;26.00;1.00;;;;;;5013542;28;20046;-78
2022/05/09 09:21:32;;;;;;;12.27;4.10;;;25.80;1.00;;;;;;5013487;28;20041;-79
2022/05/09 09:24:15;;;;;;;11.10;3.60;;;26.00;1.00;;;;;;5013655;28;20050;-78
2022/05/09 09:27:05;;;;;;;13.20;4.00;;;26.10;1.00;;;;;;5013476;28;20536;-78
2022/05/09 09:29:45;;;;;;;12.65;3.38;;;25.10;1.00;;;;;;5013553;28;20443;-79
2022/05/09 09:32:14;;;;;;;10.00;3.28;;;24.30;1.00;;;;;;5013484;28;20411;-80
2022/05/09 09:34:52;;;;;;;10.30;2.90;;;24.40;1.00;;;;;;5013230;28;20088;-80
2022/05/09 09:37:36;;;;;;;11.18;3.50;;;24.30;1.00;;;;;;5014139;28;20042;-79
2022/05/09 09:40:04;;;;;;;12.18;3.55;;;24.20;1.00;;;;;;5013542;28;20041;-79
2022/05/09 09:42:30;;;;;;;17.63;3.40;;;24.60;1.00;;;;;;5013930;28;20048;-79
2022/05/09 09:44:58;;;;;;;8.48;3.05;;;24.50;1.00;;;;;;5013464;28;20057;-79
2022/05/09 09:47:26;;;;;;;9.23;2.70;;;23.70;1.00;;;;;;5013172;28;20053;-80
2022/05/09 09:50:22;;;;;;;9.02;3.05;;;23.90;1.00;;;;;;5013107;28;20081;-79
2022/05/09 09:52:56;;;;;;;10.75;3.05;;;23.50;1.00;;;;;;5013278;28;20116;-78
2022/05/09 09:55:33;;;;;;;12.27;3.00;;;23.40;1.00;;;;;;5013082;28;20049;-80
2022/05/09 09:58:22;;;;;;;11.40;2.95;;;23.40;1.00;;;;;;5013228;28;20037;-79
2022/05/09 10:01:01;;;;;;;11.15;3.08;;;22.70;1.00;;;;;;5014542;28;20062;-80
2022/05/09 10:03:31;;;;;;;13.50;3.25;;;23.20;1.00;;;;;;5013942;28;20129;-80
2022/05/09 10:05:58;;;;;;;9.15;3.63;;;22.80;1.00;;;;;;5012196;28;20054;-79
2022/05/09 10:08:36;;;;;;;9.52;2.28;;;23.00;1.00;;;;;;5012952;28;20046;-80
2022/05/09 10:11:22;;;;;;;7.00;2.50;;;23.00;1.00;;;;;;5012993;28;20073;-80
2022/05/09 10:13:54;;;;;;;14.02;3.47;;;23.20;1.00;;;;;;5013049;28;20046;-79
2022/05/09 10:16:33;;;;;;;6.65;2.35;;;23.50;1.00;;;;;;5012708;28;20034;-79
2022/05/09 10:19:01;;;;;;;8.43;2.78;;;23.50;1.00;;;;;;5011758;28;20050;-78
2022/05/09 10:24:47;;;;;;;13.70;2.85;;;22.90;1.00;;;;;;5012965;28;20058;-80
2022/05/09 10:27:25;;;;;;;8.40;2.53;;;22.80;1.00;;;;;;5014416;28;20042;-80
2022/05/09 10:29:54;;;;;;;14.30;3.38;;;23.00;1.00;;;;;;5015816;28;20482;-80
2022/05/09 10:32:29;;;;;;;9.23;2.47;;;23.00;1.00;;;;;;5016387;28;20077;-80
2022/05/09 10:35:23;;;;;;;14.40;3.05;;;23.00;1.00;;;;;;5016733;28;20042;-80
2022/05/09 10:38:02;;;;;;;8.95;3.10;;;23.30;1.00;;;;;;5016468;28;20597;-80
2022/05/09 10:40:37;;;;;;;10.18;2.53;;;23.20;1.00;;;;;;5016457;28;20041;-79
2022/05/09 10:43:11;;;;;;;8.33;2.63;;;23.30;1.00;;;;;;5016822;28;20070;-80
2022/05/09 10:45:44;;;;;;;12.18;2.30;;;23.40;1.00;;;;;;5015889;28;20038;-81
2022/05/09 10:48:35;;;;;;;12.27;3.25;;;23.80;1.00;;;;;;5016167;28;20164;-79
2022/05/09 10:51:10;;;;;;;8.95;2.70;;;23.50;1.00;;;;;;5015983;28;20120;-79
2022/05/09 10:53:44;;;;;;;6.72;2.00;;;24.10;1.00;;;;;;5016977;28;20074;-78
2022/05/09 10:56:25;;;;;;;7.90;2.08;;;24.40;1.00;;;;;;5017098;28;20093;-79
2022/05/09 10:59:00;;;;;;;8.55;2.30;;;24.70;1.00;;;;;;5017211;28;20487;-79
2022/05/09 11:01:51;;;;;;;8.98;2.78;;;24.70;1.00;;;;;;5016764;28;20061;-79
2022/05/09 11:04:17;;;;;;;10.18;2.97;;;24.80;1.00;;;;;;5015916;28;20481;-79
2022/05/09 11:07:16;;;;;;;11.90;2.80;;;24.80;1.00;;;;;;5015817;28;20125;-79
2022/05/09 11:10:06;;;;;;;9.98;2.58;;;24.10;1.00;;;;;;5015423;28;20108;-79
2022/05/09 11:12:38;;;;;;;10.23;2.35;;;24.60;1.00;;;;;;5015957;28;20044;-79
2022/05/09 11:15:18;;;;;;;9.13;2.40;;;24.80;1.00;;;;;;5015501;28;20124;-79
2022/05/09 11:18:17;;;;;;;8.93;2.28;;;24.80;1.00;;;;;;5015672;28;20447;-79
2022/05/09 11:21:03;;;;;;;10.70;2.38;;;25.20;1.00;;;;;;5015857;28;20053;-79
2022/05/09 11:23:43;;;;;;;6.97;2.38;;;25.80;1.00;;;;;;5016200;28;20049;-79
2022/05/09 11:26:22;;;;;;;7.10;1.52;;;26.60;1.00;;;;;;5016024;28;20533;-79
2022/05/09 11:29:06;;;;;;;9.63;2.13;;;26.10;1.00;;;;;;5015730;28;20176;-79
2022/05/09 11:32:16;;;;;;;8.20;2.45;;;26.70;1.00;;;;;;5015309;28;20141;-79
2022/05/09 11:35:07;;;;;;;11.30;2.58;;;26.80;1.00;;;;;;4986285;28;20076;-80
2022/05/09 11:38:07;;;;;;;8.68;2.65;;;27.70;1.00;;;;;;5015312;28;20046;-80
2022/05/09 11:40:36;;;;;;;10.82;2.47;;;27.90;1.00;;;;;;5015023;28;20049;-80
2022/05/09 11:43:27;;;;;;;8.55;2.65;;;28.10;1.00;;;;;;5015238;28;20505;-80
2022/05/09 11:46:20;;;;;;;6.78;1.80;;;28.30;1.00;;;;;;5015209;28;20049;-80
2022/05/09 11:48:54;;;;;;;5.55;2.20;;;28.60;1.00;;;;;;5015285;28;20046;-80
2022/05/09 11:51:31;;;;;;;7.43;2.10;;;28.10;1.00;;;;;;5015038;28;20398;-79
2022/05/09 11:54:00;;;;;;;6.10;2.00;;;28.20;1.00;;;;;;5015015;28;20061;-79
2022/05/09 11:56:28;;;;;;;7.13;2.22;;;28.10;1.00;;;;;;5014810;28;20127;-79
2022/05/09 11:58:54;;;;;;;9.00;2.30;;;28.30;1.00;;;;;;5014964;28;20050;-79
2022/05/09 12:01:52;;;;;;;10.68;2.00;;;28.60;1.00;;;;;;5014553;28;20050;-80
2022/05/09 12:04:33;;;;;;;6.40;2.35;;;29.00;1.00;;;;;;5015115;28;20124;-79
2022/05/09 12:06:59;;;;;;;7.10;1.50;;;29.20;1.00;;;;;;4997724;28;20517;-79
2022/05/09 12:09:53;;;;;;;7.25;1.92;;;29.40;1.00;;;;;;5015005;28;20033;-79
2022/05/09 12:12:37;;;;;;;8.93;2.17;;;29.50;1.00;;;;;;5014694;28;20057;-79
2022/05/09 12:15:05;;;;;;;8.32;1.58;;;29.40;1.00;;;;;;5015625;28;20401;-80
2022/05/09 12:17:38;;;;;;;8.93;2.42;;;29.00;1.00;;;;;;5015306;28;20533;-80
2022/05/09 12:20:08;;;;;;;7.30;1.92;;;29.30;1.00;;;;;;5015035;28;20494;-79
2022/05/09 12:22:42;;;;;;;12.35;2.38;;;29.70;1.00;;;;;;5014786;28;20493;-79
2022/05/09 12:25:37;;;;;;;8.68;1.83;;;30.00;1.00;;;;;;5014579;28;20096;-79
2022/05/09 12:28:21;;;;;;;8.73;2.05;;;30.20;1.00;;;;;;4996819;28;20052;-79
2022/05/09 12:31:01;;;;;;;8.30;2.03;;;30.10;1.00;;;;;;4996687;28;20053;-79
2022/05/09 12:33:28;;;;;;;5.68;1.95;;;30.60;1.00;;;;;;5014259;28;20042;-79
2022/05/09 12:35:57;;;;;;;7.00;1.80;;;30.70;1.00;;;;;;5013997;28;20046;-79
2022/05/09 12:38:29;;;;;;;10.48;2.40;;;30.30;1.00;;;;;;5013645;28;20045;-79
2022/05/09 12:41:00;;;;;;;7.75;2.17;;;30.50;1.00;;;;;;5013785;28;20045;-79
2022/05/09 12:43:29;;;;;;;6.88;1.92;;;30.60;1.00;;;;;;4996282;28;20050;-78
2022/05/09 12:45:55;;;;;;;7.50;1.77;;;30.60;1.00;;;;;;5014370;28;20050;-78
2022/05/09 12:48:21;;;;;;;11.15;2.67;;;30.50;1.00;;;;;;5014182;28;20038;-79
2022/05/09 12:50:47;;;;;;;9.15;2.08;;;29.40;1.00;;;;;;5013639;28;20459;-79
2022/05/09 12:53:17;;;;;;;5.05;1.58;;;29.10;1.00;;;;;;5014177;28;20120;-78
2022/05/09 12:55:52;;;;;;;8.15;1.73;;;30.10;1.00;;;;;;5013290;28;20038;-79
2022/05/09 12:58:34;;;;;;;8.15;2.28;;;30.90;1.00;;;;;;5013878;28;20073;-79
2022/05/09 13:01:00;;;;;;;6.20;1.55;;;30.90;1.00;;;;;;5013474;28;20057;-79
2022/05/09 13:03:26;;;;;;;9.77;2.40;;;30.00;1.00;;;;;;5013680;28;20054;-79
2022/05/09 13:05:52;;;;;;;12.13;2.33;;;30.50;1.00;;;;;;5013567;28;20053;-78
2022/05/09 13:08:17;;;;;;;7.22;1.83;;;30.70;1.00;;;;;;5013635;28;20117;-79